createdAt,value
2023-05-08T00:00:06.029Z,15.25
2023-05-08T00:02:53.473Z,15.35
2023-05-08T00:05:42.100Z,16.92
2023-05-08T00:08:33.941Z,16.30
2023-05-08T00:11:21.579Z,16.33
2023-05-08T00:14:08.998Z,15.80
2023-05-08T00:16:56.478Z,15.93
2023-05-08T00:19:43.799Z,15.48
2023-05-08T00:22:31.472Z,14.88
2023-05-08T00:25:21.214Z,16.00
2023-05-08T00:28:11.084Z,16.60
2023-05-08T00:31:02.374Z,16.17
2023-05-08T00:33:51.604Z,16.45
2023-05-08T00:36:39.196Z,15.88
2023-05-08T00:39:27.085Z,16.83
2023-05-08T00:42:15.700Z,17.92
2023-05-08T00:45:03.724Z,17.15
2023-05-08T00:47:51.683Z,18.63
2023-05-08T00:50:42.006Z,16.85
2023-05-08T00:53:32.320Z,18.10
2023-05-08T00:56:21.025Z,16.27
2023-05-08T00:59:13.635Z,18.02
2023-05-08T01:02:03.881Z,18.15
2023-05-08T01:04:55.172Z,17.27
2023-05-08T01:07:46.388Z,17.20
2023-05-08T01:10:43.067Z,17.17
2023-05-08T01:13:45.827Z,16.63
2023-05-08T01:16:40.261Z,15.80
2023-05-08T01:19:58.108Z,17.63
2023-05-08T01:23:00.945Z,16.55
2023-05-08T01:26:20.671Z,18.08
2023-05-08T01:29:34.208Z,17.38
2023-05-08T01:32:32.804Z,19.33
2023-05-08T01:35:32.810Z,17.67
2023-05-08T01:38:28.093Z,17.70
2023-05-08T01:41:25.777Z,17.90
2023-05-08T01:44:15.843Z,18.65
2023-05-08T01:47:07.283Z,17.83
2023-05-08T01:50:05.716Z,20.17
2023-05-08T01:52:59.535Z,21.15
2023-05-08T01:55:54.828Z,19.90
2023-05-08T01:58:43.955Z,21.00
2023-05-08T02:01:33.888Z,19.85
2023-05-08T02:04:22.361Z,20.75
2023-05-08T02:07:14.440Z,19.40
2023-05-08T02:10:03.729Z,20.00
2023-05-08T02:12:52.279Z,18.85
2023-05-08T02:15:42.193Z,18.42
2023-05-08T02:18:32.004Z,18.77
2023-05-08T02:21:23.180Z,18.92
2023-05-08T02:24:15.586Z,19.60
2023-05-08T02:27:04.047Z,18.35
2023-05-08T02:29:55.699Z,19.15
2023-05-08T02:32:48.810Z,17.70
2023-05-08T02:35:38.738Z,17.77
2023-05-08T02:38:27.280Z,17.65
2023-05-08T02:41:19.651Z,17.63
2023-05-08T02:44:10.096Z,17.17
2023-05-08T02:47:07.629Z,18.33
2023-05-08T02:50:07.034Z,17.73
2023-05-08T02:53:03.149Z,19.08
2023-05-08T02:55:59.141Z,18.88
2023-05-08T02:58:55.464Z,19.85
2023-05-08T03:01:49.070Z,19.60
2023-05-08T03:04:48.085Z,19.90
2023-05-08T03:07:39.532Z,22.40
2023-05-08T03:10:33.232Z,27.80
2023-05-08T03:13:21.574Z,26.00
2023-05-08T03:16:15.722Z,30.27
2023-05-08T03:19:07.839Z,30.27
2023-05-08T03:21:57.820Z,30.20
2023-05-08T03:24:47.256Z,30.80
2023-05-08T03:27:36.921Z,27.10
2023-05-08T03:30:29.104Z,28.10
2023-05-08T03:33:18.239Z,28.58
2023-05-08T03:36:11.820Z,32.20
2023-05-08T03:39:00.309Z,32.00
2023-05-08T03:41:50.906Z,32.42
2023-05-08T03:44:39.789Z,40.83
2023-05-08T03:47:33.743Z,32.55
2023-05-08T03:50:25.794Z,39.95
2023-05-08T03:53:14.509Z,38.15
2023-05-08T03:56:03.025Z,34.67
2023-05-08T03:59:05.351Z,34.08
2023-05-08T04:01:59.693Z,35.25
2023-05-08T04:04:53.084Z,35.92
2023-05-08T04:07:51.059Z,37.45
2023-05-08T04:10:48.900Z,38.95
2023-05-08T04:13:46.499Z,35.00
2023-05-08T04:16:42.334Z,33.58
2023-05-08T04:19:34.451Z,35.95
2023-05-08T04:22:25.649Z,37.63
2023-05-08T04:25:17.578Z,35.15
2023-05-08T04:28:05.828Z,37.85
2023-05-08T04:30:53.714Z,35.92
2023-05-08T04:33:42.702Z,35.50
2023-05-08T04:36:31.817Z,34.97
2023-05-08T04:39:20.060Z,36.65
2023-05-08T04:43:55.041Z,35.80
2023-05-08T04:46:34.003Z,36.33
2023-05-08T04:49:21.322Z,32.38
2023-05-08T04:52:08.996Z,32.80
2023-05-08T04:54:56.740Z,32.78
2023-05-08T04:57:45.916Z,33.08
2023-05-08T05:00:34.228Z,33.72
2023-05-08T05:03:21.552Z,35.80
2023-05-08T05:06:09.018Z,34.38
2023-05-08T05:08:58.631Z,35.20
2023-05-08T05:11:46.309Z,34.35
2023-05-08T05:14:36.083Z,33.75
2023-05-08T05:17:26.128Z,36.10
2023-05-08T05:20:15.082Z,32.92
2023-05-08T05:23:02.499Z,33.17
2023-05-08T05:25:50.070Z,33.85
2023-05-08T05:28:37.754Z,33.95
2023-05-08T05:31:26.471Z,32.45
2023-05-08T05:34:13.979Z,34.72
2023-05-08T05:37:01.679Z,33.85
2023-05-08T05:39:49.531Z,33.17
2023-05-08T05:42:40.037Z,31.10
2023-05-08T05:45:27.735Z,30.45
2023-05-08T05:48:17.203Z,33.38
2023-05-08T05:51:07.390Z,29.90
2023-05-08T05:54:01.148Z,29.70
2023-05-08T05:56:48.825Z,29.23
2023-05-08T05:59:39.202Z,29.73
2023-05-08T06:02:34.407Z,28.77
2023-05-08T06:05:23.478Z,27.17
2023-05-08T06:08:11.561Z,26.55
2023-05-08T06:11:01.037Z,24.90
2023-05-08T06:13:50.674Z,26.27
2023-05-08T06:16:40.627Z,25.67
2023-05-08T06:23:44.157Z,24.48
2023-05-08T06:26:31.240Z,25.27
2023-05-08T06:29:18.852Z,27.38
2023-05-08T06:32:10.292Z,26.90
2023-05-08T06:35:07.359Z,26.15
2023-05-08T06:37:55.098Z,27.38
2023-05-08T06:40:44.846Z,27.25
2023-05-08T06:43:32.805Z,28.42
2023-05-08T06:46:25.384Z,30.02
2023-05-08T06:49:12.840Z,30.02
2023-05-08T06:52:02.104Z,27.45
2023-05-08T06:54:49.658Z,29.67
2023-05-08T06:57:38.610Z,29.92
2023-05-08T07:00:26.697Z,29.60
2023-05-08T07:03:14.667Z,28.88
2023-05-08T07:06:02.040Z,29.52
2023-05-08T07:08:50.374Z,28.48
2023-05-08T07:11:38.504Z,27.00
2023-05-08T07:14:27.736Z,27.52
2023-05-08T07:17:15.508Z,27.73
2023-05-08T07:20:03.729Z,28.00
2023-05-08T07:22:51.796Z,29.27
2023-05-08T07:25:39.687Z,29.85
2023-05-08T07:28:28.316Z,29.40
2023-05-08T07:31:17.297Z,29.52
2023-05-08T07:34:04.593Z,30.40
2023-05-08T07:36:52.553Z,28.58
2023-05-08T07:39:48.748Z,29.70
2023-05-08T07:42:43.423Z,29.05
2023-05-08T07:45:31.027Z,26.77
2023-05-08T07:48:21.475Z,26.70
2023-05-08T07:51:11.407Z,26.38
2023-05-08T07:53:58.821Z,25.92
2023-05-08T07:56:46.402Z,28.02
2023-05-08T07:59:33.814Z,27.33
2023-05-08T08:02:21.852Z,28.88
2023-05-08T08:05:11.440Z,27.27
2023-05-08T08:07:59.088Z,26.92
2023-05-08T08:10:49.659Z,27.80
2023-05-08T08:13:40.485Z,29.73
2023-05-08T08:16:28.484Z,29.35
2023-05-08T08:19:16.365Z,28.42
2023-05-08T08:22:09.034Z,29.17
2023-05-08T08:24:56.864Z,29.17
2023-05-08T08:27:44.418Z,31.35
2023-05-08T08:30:31.888Z,29.90
2023-05-08T08:33:19.460Z,29.48
2023-05-08T08:36:13.208Z,30.40
2023-05-08T08:39:02.772Z,34.67
2023-05-08T08:41:51.101Z,34.47
2023-05-08T08:44:41.906Z,34.67
2023-05-08T08:47:34.959Z,34.72
2023-05-08T08:50:27.169Z,34.78
2023-05-08T08:56:12.626Z,34.17
2023-05-08T08:59:01.896Z,34.67
2023-05-08T09:01:57.222Z,34.72
2023-05-08T09:04:44.998Z,33.10
2023-05-08T09:07:36.212Z,32.72
2023-05-08T09:10:25.035Z,33.80
2023-05-08T09:13:14.280Z,33.35
2023-05-08T09:16:03.120Z,33.38
2023-05-08T09:18:53.430Z,31.95
2023-05-08T09:21:41.480Z,33.03
2023-05-08T09:24:59.838Z,31.42
2023-05-08T09:27:47.885Z,29.42
2023-05-08T09:30:50.228Z,30.20
2023-05-08T09:33:46.176Z,28.15
2023-05-08T09:36:35.032Z,28.20
2023-05-08T09:39:26.896Z,31.23
2023-05-08T09:42:17.785Z,29.45
2023-05-08T09:45:08.465Z,30.05
2023-05-08T09:47:57.953Z,28.42
2023-05-08T09:50:45.667Z,26.00
2023-05-08T09:53:34.225Z,25.48
2023-05-08T09:56:34.787Z,28.50
2023-05-08T09:59:34.210Z,25.63
2023-05-08T10:02:28.106Z,27.17
2023-05-08T10:05:30.289Z,25.63
2023-05-08T10:08:32.025Z,27.25
2023-05-08T10:11:21.544Z,25.90
2023-05-08T10:14:09.570Z,25.80
2023-05-08T10:17:01.157Z,28.42
2023-05-08T10:20:00.176Z,25.83
2023-05-08T10:22:51.316Z,25.75
2023-05-08T10:25:47.417Z,27.05
2023-05-08T10:28:45.041Z,27.42
2023-05-08T10:31:41.518Z,27.20
2023-05-08T10:34:32.712Z,26.35
2023-05-08T10:37:20.472Z,29.10
2023-05-08T10:40:16.234Z,26.63
2023-05-08T10:43:07.667Z,26.83
2023-05-08T10:45:57.393Z,26.27
2023-05-08T10:48:51.736Z,27.52
2023-05-08T10:51:47.656Z,25.27
2023-05-08T10:54:49.729Z,26.10
2023-05-08T10:57:41.158Z,23.92
2023-05-08T11:00:34.066Z,21.70
2023-05-08T11:03:32.162Z,21.75
2023-05-08T11:06:49.762Z,23.23
2023-05-08T11:09:58.188Z,19.67
2023-05-08T11:12:59.176Z,20.98
2023-05-08T11:15:51.366Z,20.65
2023-05-08T11:19:21.010Z,19.45
2023-05-08T11:22:24.843Z,20.35
2023-05-08T11:25:14.232Z,19.35
2023-05-08T11:28:21.877Z,20.23
2023-05-08T11:31:09.840Z,19.85
2023-05-08T11:33:59.159Z,19.73
2023-05-08T11:37:04.526Z,18.88
2023-05-08T11:39:52.497Z,21.33
2023-05-08T11:42:44.722Z,21.88
2023-05-08T11:45:41.464Z,22.67
2023-05-08T11:48:28.990Z,21.85
2023-05-08T11:51:38.208Z,23.63
2023-05-08T11:54:29.853Z,21.98
2023-05-08T11:57:21.974Z,21.70
2023-05-08T12:00:19.727Z,21.73
2023-05-08T12:03:12.333Z,20.73
2023-05-08T12:06:02.550Z,20.65
2023-05-08T12:09:05.038Z,19.40
2023-05-08T12:11:58.017Z,19.50
2023-05-08T12:14:49.853Z,17.45
2023-05-08T12:17:40.112Z,18.08
2023-05-08T12:20:29.146Z,17.70
2023-05-08T12:23:17.822Z,17.15
2023-05-08T12:26:05.379Z,17.23
2023-05-08T12:28:59.461Z,17.27
2023-05-08T12:31:48.454Z,19.42
2023-05-08T12:34:46.467Z,17.85
2023-05-08T12:37:44.110Z,18.95
2023-05-08T12:40:39.749Z,17.98
2023-05-08T12:43:45.608Z,18.02
2023-05-08T12:46:33.761Z,19.75
2023-05-08T12:49:26.346Z,17.27
2023-05-08T12:52:16.899Z,17.48
2023-05-08T12:55:20.678Z,16.92
2023-05-08T12:58:14.305Z,18.85
2023-05-08T13:01:17.512Z,18.35
2023-05-08T13:04:08.342Z,20.58
2023-05-08T13:06:56.745Z,19.35
2023-05-08T13:09:57.638Z,20.10
2023-05-08T13:12:47.271Z,22.15
2023-05-08T13:15:44.680Z,23.50
2023-05-08T13:18:32.419Z,20.70
2023-05-08T13:21:19.670Z,22.88
2023-05-08T13:24:14.113Z,20.60
2023-05-08T13:27:13.036Z,19.95
2023-05-08T13:30:09.502Z,19.67
2023-05-08T13:33:02.425Z,19.35
2023-05-08T13:35:58.977Z,20.40
2023-05-08T13:38:48.747Z,21.13
2023-05-08T13:41:38.794Z,19.92
2023-05-08T13:44:29.158Z,19.20
2023-05-08T13:47:22.414Z,21.70
2023-05-08T13:50:14.457Z,19.55
2023-05-08T13:56:38.764Z,18.92
2023-05-08T13:59:35.382Z,18.88
2023-05-08T14:02:40.433Z,18.10
2023-05-08T14:05:31.949Z,16.02
2023-05-08T14:08:34.935Z,18.05
2023-05-08T14:11:23.713Z,20.65
2023-05-08T14:14:11.020Z,17.30
2023-05-08T14:16:59.040Z,17.80
2023-05-08T14:19:49.622Z,17.52
2023-05-08T14:22:40.585Z,17.23
2023-05-08T14:25:33.354Z,17.65
2023-05-08T14:28:21.020Z,20.58
2023-05-08T14:31:09.189Z,19.80
2023-05-08T14:37:04.644Z,20.17
2023-05-08T14:39:54.443Z,19.40
2023-05-08T14:42:42.120Z,17.77
2023-05-08T14:45:29.891Z,15.50
2023-05-08T14:48:32.882Z,14.60
2023-05-08T14:51:23.138Z,15.60
2023-05-08T14:54:14.611Z,15.85
2023-05-08T14:57:02.429Z,15.95
2023-05-08T15:00:06.413Z,19.20
2023-05-08T15:02:57.970Z,17.00
2023-05-08T15:05:47.515Z,19.42
2023-05-08T15:08:35.162Z,17.83
2023-05-08T15:11:30.295Z,18.58
2023-05-08T15:14:17.905Z,18.27
2023-05-08T15:17:05.507Z,17.75
2023-05-08T15:19:56.079Z,18.63
2023-05-08T15:22:50.465Z,17.63
2023-05-08T15:25:41.057Z,18.25
2023-05-08T15:28:43.419Z,17.67
2023-05-08T15:31:31.468Z,18.65
2023-05-08T15:34:23.358Z,14.77
2023-05-08T15:37:12.591Z,17.45
2023-05-08T15:39:59.853Z,18.20
2023-05-08T15:42:47.704Z,15.88
2023-05-08T15:45:36.995Z,18.60
2023-05-08T15:48:34.915Z,16.95
2023-05-08T15:51:23.720Z,16.48
2023-05-08T15:54:17.867Z,17.63
2023-05-08T15:57:06.030Z,17.88
2023-05-08T15:59:53.558Z,17.60
2023-05-08T16:02:44.975Z,19.20
2023-05-08T16:05:32.856Z,18.20
2023-05-08T16:08:21.102Z,18.35
2023-05-08T16:11:12.234Z,16.55
2023-05-08T16:14:00.228Z,16.33
2023-05-08T16:16:53.372Z,15.90
2023-05-08T16:19:43.611Z,17.88
2023-05-08T16:22:31.304Z,15.85
2023-05-08T16:25:19.243Z,16.42
2023-05-08T16:28:07.395Z,14.38
2023-05-08T16:30:55.314Z,14.48
2023-05-08T16:33:45.269Z,15.70
2023-05-08T16:36:34.379Z,14.45
2023-05-08T16:39:22.056Z,14.05
2023-05-08T16:42:14.384Z,13.88
2023-05-08T16:45:02.153Z,13.32
2023-05-08T16:47:52.709Z,12.52
2023-05-08T16:50:41.987Z,10.98
2023-05-08T16:53:32.802Z,13.38
2023-05-08T16:56:22.653Z,14.95
2023-05-08T16:59:11.095Z,14.05
2023-05-08T17:01:58.904Z,13.85
2023-05-08T17:04:49.709Z,13.93
2023-05-08T17:07:37.434Z,13.43
2023-05-08T17:10:26.229Z,14.57
2023-05-08T17:13:15.065Z,14.30
2023-05-08T17:16:02.793Z,14.30
2023-05-08T17:18:50.734Z,14.75
2023-05-08T17:21:38.349Z,15.52
2023-05-08T17:24:25.891Z,13.93
2023-05-08T17:27:14.956Z,15.02
2023-05-08T17:30:02.419Z,14.00
2023-05-08T17:32:51.813Z,15.10
2023-05-08T17:35:39.762Z,15.88
2023-05-08T17:38:28.644Z,15.18
2023-05-08T17:41:38.506Z,14.57
2023-05-08T17:44:38.276Z,14.40
2023-05-08T17:47:27.018Z,13.68
2023-05-08T17:50:15.395Z,14.25
2023-05-08T17:53:05.941Z,15.25
2023-05-08T17:56:31.142Z,15.55
2023-05-08T17:59:23.535Z,15.45
2023-05-08T18:02:18.820Z,14.40
2023-05-08T18:05:11.643Z,14.48
2023-05-08T18:08:04.470Z,16.45
2023-05-08T18:10:52.256Z,15.63
2023-05-08T18:13:43.799Z,17.35
2023-05-08T18:16:31.813Z,17.98
2023-05-08T18:19:20.841Z,16.95
2023-05-08T18:22:08.863Z,16.77
2023-05-08T18:25:19.481Z,17.58
2023-05-08T18:28:07.456Z,17.17
2023-05-08T18:30:56.538Z,18.23
2023-05-08T18:34:09.374Z,17.08
2023-05-08T18:37:07.023Z,19.63
2023-05-08T18:39:57.803Z,18.48
2023-05-08T18:42:45.606Z,19.10
2023-05-08T18:45:37.628Z,19.42
2023-05-08T18:48:25.780Z,19.05
2023-05-08T18:51:15.147Z,19.50
2023-05-08T18:54:04.862Z,17.88
2023-05-08T18:57:00.266Z,19.90
2023-05-08T18:59:52.062Z,20.30
2023-05-08T19:02:39.563Z,20.00
2023-05-08T19:05:30.317Z,26.45
2023-05-08T19:08:18.794Z,21.15
2023-05-08T19:11:07.747Z,20.85
2023-05-08T19:13:56.471Z,19.17
2023-05-08T19:16:45.065Z,19.70
2023-05-08T19:19:34.346Z,19.77
2023-05-08T19:22:25.213Z,18.75
2023-05-08T19:25:15.204Z,19.15
2023-05-08T19:28:04.761Z,16.00
2023-05-08T19:30:54.788Z,18.85
2023-05-08T19:33:42.150Z,17.60
2023-05-08T19:36:29.548Z,16.88
2023-05-08T19:39:17.891Z,17.25
2023-05-08T19:42:05.459Z,16.10
2023-05-08T19:44:54.257Z,15.40
2023-05-08T19:47:41.852Z,16.80
2023-05-08T19:50:28.975Z,16.83
2023-05-08T19:53:16.480Z,16.02
2023-05-08T19:56:06.378Z,12.55
2023-05-08T19:58:58.199Z,10.93
2023-05-08T20:01:51.766Z,11.45
2023-05-08T20:04:57.501Z,9.45
2023-05-08T20:07:49.688Z,9.38
2023-05-08T20:10:38.769Z,10.50
2023-05-08T20:13:26.112Z,10.00
2023-05-08T20:16:13.688Z,9.50
2023-05-08T20:19:02.248Z,10.18
2023-05-08T20:21:49.682Z,9.63
2023-05-08T20:24:39.406Z,10.68
2023-05-08T20:27:27.274Z,9.18
2023-05-08T20:30:17.006Z,10.68
2023-05-08T20:33:05.324Z,10.85
2023-05-08T20:35:54.548Z,8.98
2023-05-08T20:38:43.457Z,9.65
2023-05-08T20:41:30.929Z,10.23
2023-05-08T20:44:27.506Z,10.23
2023-05-08T20:47:42.257Z,9.68
2023-05-08T20:50:49.832Z,9.55
2023-05-08T20:53:41.165Z,11.05
2023-05-08T20:56:54.041Z,9.60
2023-05-08T20:59:47.300Z,9.30
2023-05-08T21:02:40.492Z,7.82
2023-05-08T21:05:28.702Z,9.27
2023-05-08T21:08:16.169Z,7.68
2023-05-08T21:11:07.700Z,8.60
2023-05-08T21:13:55.681Z,8.18
2023-05-08T21:16:42.968Z,7.28
2023-05-08T21:19:33.845Z,8.00
2023-05-08T21:22:22.129Z,7.65
2023-05-08T21:25:21.296Z,7.30
2023-05-08T21:28:10.317Z,7.35
2023-05-08T21:30:57.984Z,7.00
2023-05-08T21:33:48.009Z,7.22
2023-05-08T21:36:36.730Z,7.38
2023-05-08T21:39:24.243Z,15.73
2023-05-08T21:42:12.552Z,8.65
2023-05-08T21:45:10.267Z,8.55
2023-05-08T21:47:58.753Z,7.70
2023-05-08T21:50:46.584Z,9.77
2023-05-08T21:53:34.329Z,7.75
2023-05-08T21:56:24.140Z,8.63
2023-05-08T21:59:13.187Z,8.63
2023-05-08T22:02:04.969Z,7.65
2023-05-08T22:04:53.500Z,8.50
2023-05-08T22:07:53.593Z,8.70
2023-05-08T22:10:44.513Z,8.57
2023-05-08T22:13:32.024Z,8.60
2023-05-08T22:16:22.071Z,9.50
2023-05-08T22:20:00.653Z,8.55
2023-05-08T22:22:57.725Z,9.43
2023-05-08T22:25:49.466Z,9.93
2023-05-08T22:28:40.636Z,10.38
2023-05-08T22:31:56.411Z,11.02
2023-05-08T22:34:46.453Z,12.10
2023-05-08T22:37:37.190Z,11.57
2023-05-08T22:40:34.725Z,11.32
2023-05-08T22:43:42.554Z,11.95
2023-05-08T22:46:39.119Z,12.68
2023-05-08T22:49:27.294Z,12.63
2023-05-08T22:52:18.434Z,13.48
2023-05-08T22:55:15.030Z,13.68
2023-05-08T22:58:04.775Z,13.55
2023-05-08T23:00:52.624Z,15.50
2023-05-08T23:03:48.738Z,14.38
2023-05-08T23:06:36.610Z,13.50
2023-05-08T23:09:25.747Z,13.75
2023-05-08T23:12:13.393Z,14.05
2023-05-08T23:15:02.637Z,14.20
2023-05-08T23:17:50.303Z,14.20
2023-05-08T23:20:38.224Z,16.20
2023-05-08T23:23:33.564Z,15.63
2023-05-08T23:26:23.984Z,16.33
2023-05-08T23:29:13.857Z,15.95
2023-05-08T23:32:03.788Z,16.52
2023-05-08T23:35:02.943Z,16.58
2023-05-08T23:37:50.633Z,16.13
2023-05-08T23:40:38.055Z,17.42
2023-05-08T23:43:33.488Z,19.05
2023-05-08T23:46:21.131Z,18.60
2023-05-08T23:49:08.599Z,18.45
2023-05-08T23:51:57.389Z,19.65
2023-05-08T23:54:47.558Z,19.15
2023-05-08T23:57:35.648Z,19.30
